createdAt,value
2022-11-20T00:02:26.359Z,5.38
2022-11-20T00:05:13.853Z,6.27
2022-11-20T00:07:42.199Z,5.97
2022-11-20T00:10:14.586Z,6.32
2022-11-20T00:12:46.091Z,7.18
2022-11-20T00:15:14.159Z,6.93
2022-11-20T00:17:42.016Z,4.85
2022-11-20T00:20:12.680Z,4.93
2022-11-20T00:22:40.048Z,3.80
2022-11-20T00:25:11.230Z,3.17
2022-11-20T00:27:45.421Z,2.92
2022-11-20T00:30:22.041Z,3.00
2022-11-20T00:32:49.156Z,2.80
2022-11-20T00:35:17.475Z,2.38
2022-11-20T00:37:45.155Z,2.17
2022-11-20T00:40:20.269Z,1.83
2022-11-20T00:42:49.813Z,1.88
2022-11-20T00:45:20.274Z,1.98
2022-11-20T00:47:48.178Z,2.38
2022-11-20T00:50:19.229Z,3.13
2022-11-20T00:52:49.447Z,1.80
2022-11-20T00:55:22.380Z,2.25
2022-11-20T00:57:50.429Z,3.45
2022-11-20T01:00:19.513Z,1.80
2022-11-20T01:02:53.675Z,1.50
2022-11-20T01:05:21.139Z,1.25
2022-11-20T01:07:49.652Z,4.68
2022-11-20T01:10:22.678Z,3.38
2022-11-20T01:13:20.233Z,3.28
2022-11-20T01:15:57.585Z,1.60
2022-11-20T01:18:27.999Z,1.60
2022-11-20T01:21:01.127Z,2.72
2022-11-20T01:23:35.596Z,1.35
2022-11-20T01:26:12.819Z,1.40
2022-11-20T01:28:45.558Z,2.42
2022-11-20T01:31:33.705Z,3.08
2022-11-20T01:34:09.962Z,6.38
2022-11-20T01:36:43.500Z,7.75
2022-11-20T01:39:22.885Z,2.25
2022-11-20T01:42:21.225Z,0.85
2022-11-20T01:45:04.517Z,1.23
2022-11-20T01:47:44.052Z,1.20
2022-11-20T01:50:39.463Z,0.82
2022-11-20T01:53:18.429Z,1.42
2022-11-20T01:56:01.404Z,1.15
2022-11-20T01:58:39.467Z,1.33
2022-11-20T02:01:08.600Z,1.52
2022-11-20T02:03:42.713Z,1.25
2022-11-20T02:06:38.770Z,0.97
2022-11-20T02:09:07.945Z,0.93
2022-11-20T02:11:37.486Z,0.93
2022-11-20T02:14:05.858Z,0.80
2022-11-20T02:16:40.794Z,1.08
2022-11-20T02:19:25.191Z,1.10
2022-11-20T02:22:32.063Z,1.00
2022-11-20T02:25:12.257Z,0.77
2022-11-20T02:27:42.165Z,0.77
2022-11-20T02:30:18.054Z,0.90
2022-11-20T02:32:46.904Z,0.90
2022-11-20T02:35:23.191Z,0.90
2022-11-20T02:37:56.806Z,0.55
2022-11-20T02:40:25.222Z,0.80
2022-11-20T02:42:59.395Z,0.70
2022-11-20T02:45:29.429Z,0.80
2022-11-20T02:48:01.087Z,0.90
2022-11-20T02:50:38.879Z,0.63
2022-11-20T02:53:06.900Z,0.63
2022-11-20T02:55:38.130Z,0.70
2022-11-20T02:58:11.787Z,0.40
2022-11-20T03:00:45.926Z,0.70
2022-11-20T03:03:20.328Z,0.60
2022-11-20T03:05:54.093Z,0.93
2022-11-20T03:08:26.170Z,3.00
2022-11-20T03:10:58.633Z,1.83
2022-11-20T03:13:29.258Z,1.30
2022-11-20T03:16:02.667Z,0.80
2022-11-20T03:18:36.729Z,0.70
2022-11-20T03:23:39.079Z,0.57
2022-11-20T03:26:25.649Z,0.75
2022-11-20T03:28:58.543Z,0.43
2022-11-20T03:31:48.522Z,0.60
2022-11-20T03:34:21.901Z,0.80
2022-11-20T03:36:52.524Z,0.90
2022-11-20T03:39:21.525Z,0.65
2022-11-20T03:41:51.464Z,0.63
2022-11-20T03:44:23.417Z,1.00
2022-11-20T03:46:51.493Z,0.93
2022-11-20T03:49:20.455Z,0.68
2022-11-20T03:51:48.994Z,0.90
2022-11-20T03:54:23.320Z,1.00
2022-11-20T03:56:54.397Z,0.65
2022-11-20T03:59:23.552Z,0.80
2022-11-20T04:02:06.337Z,0.93
2022-11-20T04:04:33.535Z,1.10
2022-11-20T04:07:04.567Z,1.20
2022-11-20T04:09:38.789Z,0.93
2022-11-20T04:12:13.758Z,0.90
2022-11-20T04:14:46.191Z,1.10
2022-11-20T04:17:20.173Z,0.98
2022-11-20T04:19:52.497Z,0.90
2022-11-20T04:22:20.322Z,0.80
2022-11-20T04:24:47.832Z,0.90
2022-11-20T04:27:27.151Z,0.90
2022-11-20T04:29:57.846Z,0.95
2022-11-20T04:32:27.224Z,1.30
2022-11-20T04:35:07.600Z,1.60
2022-11-20T04:40:04.546Z,1.13
2022-11-20T04:42:35.288Z,1.63
2022-11-20T04:45:03.813Z,1.38
2022-11-20T04:47:41.015Z,1.73
2022-11-20T04:50:09.276Z,1.80
2022-11-20T04:52:36.896Z,1.77
2022-11-20T04:55:10.929Z,2.00
2022-11-20T05:00:10.121Z,0.93
2022-11-20T05:02:37.955Z,1.10
2022-11-20T05:07:38.668Z,1.00
2022-11-20T05:10:06.772Z,1.38
2022-11-20T05:12:36.110Z,1.58
2022-11-20T05:15:11.155Z,1.25
2022-11-20T05:17:41.156Z,1.10
2022-11-20T05:20:10.909Z,1.50
2022-11-20T05:22:44.058Z,1.92
2022-11-20T05:25:16.117Z,2.17
2022-11-20T05:27:46.265Z,1.27
2022-11-20T05:30:15.338Z,1.70
2022-11-20T05:32:43.963Z,1.58
2022-11-20T05:35:12.505Z,1.20
2022-11-20T05:37:48.557Z,1.30
2022-11-20T05:40:22.807Z,1.38
2022-11-20T05:42:49.859Z,1.52
2022-11-20T05:45:22.546Z,1.30
2022-11-20T05:47:57.265Z,1.25
2022-11-20T05:50:24.927Z,1.25
2022-11-20T05:55:26.298Z,1.15
2022-11-20T05:57:56.944Z,1.10
2022-11-20T06:00:24.837Z,1.35
2022-11-20T06:03:01.969Z,1.42
2022-11-20T06:05:29.171Z,1.50
2022-11-20T06:07:58.911Z,1.42
2022-11-20T06:10:26.472Z,0.70
2022-11-20T06:15:31.320Z,0.73
2022-11-20T06:18:04.427Z,0.20
2022-11-20T06:20:36.685Z,0.25
2022-11-20T06:23:09.187Z,0.20
2022-11-20T06:25:44.850Z,0.20
2022-11-20T06:28:13.145Z,0.20
2022-11-20T06:30:47.760Z,0.20
2022-11-20T06:33:19.470Z,0.20
2022-11-20T06:35:46.758Z,0.45
2022-11-20T06:38:15.960Z,0.13
2022-11-20T06:40:46.975Z,0.10
2022-11-20T06:43:17.812Z,0.10
2022-11-20T06:45:47.753Z,0.52
2022-11-20T06:48:15.286Z,0.30
2022-11-20T06:50:42.347Z,0.25
2022-11-20T06:53:11.607Z,0.20
2022-11-20T06:55:46.468Z,0.10
2022-11-20T06:58:16.652Z,0.20
2022-11-20T07:00:45.440Z,0.25
2022-11-20T07:03:16.709Z,0.22
2022-11-20T07:05:50.926Z,0.30
2022-11-20T07:08:19.499Z,0.30
2022-11-20T07:10:56.948Z,0.10
2022-11-20T07:13:26.942Z,0.30
2022-11-20T07:16:01.669Z,0.10
2022-11-20T07:18:32.330Z,0.28
2022-11-20T07:21:10.611Z,0.20
2022-11-20T07:23:44.448Z,0.10
2022-11-20T07:26:16.315Z,0.20
2022-11-20T07:28:50.893Z,0.25
2022-11-20T07:31:28.412Z,0.20
2022-11-20T07:33:59.402Z,0.43
2022-11-20T07:36:34.340Z,0.20
2022-11-20T07:39:05.563Z,0.35
2022-11-20T07:41:45.064Z,0.30
2022-11-20T07:44:14.939Z,0.20
2022-11-20T07:46:46.385Z,0.28
2022-11-20T07:49:26.045Z,0.50
2022-11-20T07:52:00.477Z,0.30
2022-11-20T07:54:36.929Z,0.40
2022-11-20T07:57:10.780Z,0.40
2022-11-20T07:59:38.031Z,0.32
2022-11-20T08:02:05.640Z,0.30
2022-11-20T08:07:18.444Z,0.20
2022-11-20T08:09:48.687Z,0.22
2022-11-20T08:12:42.583Z,0.30
2022-11-20T08:15:18.961Z,0.52
2022-11-20T08:18:28.966Z,0.20
2022-11-20T08:20:56.839Z,0.20
2022-11-20T08:23:34.816Z,0.30
2022-11-20T08:26:05.193Z,0.20
2022-11-20T08:28:34.006Z,0.10
2022-11-20T08:31:09.425Z,0.10
2022-11-20T08:33:41.568Z,0.20
2022-11-20T08:36:13.891Z,0.20
2022-11-20T08:39:13.590Z,0.10
2022-11-20T08:41:52.414Z,0.20
2022-11-20T08:44:23.770Z,0.30
2022-11-20T08:46:52.873Z,0.28
2022-11-20T08:49:21.127Z,0.40
2022-11-20T08:52:05.412Z,0.40
2022-11-20T08:54:36.814Z,0.20
2022-11-20T08:57:26.754Z,0.43
2022-11-20T09:00:06.371Z,0.20
2022-11-20T09:02:36.320Z,0.22
2022-11-20T09:05:09.879Z,0.22
2022-11-20T09:07:44.216Z,0.20
2022-11-20T09:10:24.678Z,0.20
2022-11-20T09:12:55.704Z,0.20
2022-11-20T09:15:40.428Z,0.45
2022-11-20T09:18:15.073Z,0.40
2022-11-20T09:20:44.178Z,0.80
2022-11-20T09:23:21.573Z,0.55
2022-11-20T09:26:03.546Z,0.30
2022-11-20T09:28:35.013Z,0.60
2022-11-20T09:31:14.157Z,0.35
2022-11-20T09:33:47.426Z,0.45
2022-11-20T09:36:15.479Z,0.35
2022-11-20T09:38:46.410Z,0.40
2022-11-20T09:42:08.900Z,0.20
2022-11-20T09:44:47.770Z,0.40
2022-11-20T09:47:49.250Z,0.65
2022-11-20T09:51:05.616Z,0.35
2022-11-20T09:53:39.903Z,0.25
2022-11-20T09:56:32.142Z,0.60
2022-11-20T09:59:09.570Z,0.52
2022-11-20T10:01:45.206Z,0.30
2022-11-20T10:04:24.564Z,0.60
2022-11-20T10:07:31.525Z,0.68
2022-11-20T10:10:06.723Z,0.65
2022-11-20T10:13:03.847Z,0.80
2022-11-20T10:16:06.648Z,0.50
2022-11-20T10:19:02.833Z,0.70
2022-11-20T10:21:57.202Z,0.70
2022-11-20T10:25:08.330Z,0.70
2022-11-20T10:28:20.078Z,0.52
2022-11-20T10:31:04.363Z,0.60
2022-11-20T10:34:04.916Z,0.65
2022-11-20T10:37:00.544Z,0.60
2022-11-20T10:39:55.185Z,1.05
2022-11-20T10:43:07.667Z,0.88
2022-11-20T10:46:28.161Z,1.10
2022-11-20T10:48:56.292Z,1.00
2022-11-20T10:51:46.699Z,0.90
2022-11-20T10:54:37.941Z,0.73
2022-11-20T10:57:46.292Z,0.80
2022-11-20T11:00:19.090Z,0.85
2022-11-20T11:03:06.570Z,0.55
2022-11-20T11:06:06.801Z,0.40
2022-11-20T11:08:47.370Z,0.70
2022-11-20T11:11:43.993Z,1.20
2022-11-20T11:14:18.113Z,1.27
2022-11-20T11:17:22.926Z,0.70
2022-11-20T11:20:31.257Z,0.50
2022-11-20T11:23:05.298Z,0.60
2022-11-20T11:25:37.820Z,0.73
2022-11-20T11:28:27.853Z,0.68
2022-11-20T11:33:40.566Z,0.90
2022-11-20T11:36:23.132Z,1.05
2022-11-20T11:38:55.261Z,0.80
2022-11-20T11:41:45.860Z,0.77
2022-11-20T11:45:06.356Z,0.70
2022-11-20T11:47:57.232Z,1.05
2022-11-20T11:50:32.520Z,1.00
2022-11-20T11:53:22.959Z,1.40
2022-11-20T11:56:23.095Z,0.80
2022-11-20T11:59:02.924Z,0.90
2022-11-20T12:01:50.113Z,0.80
2022-11-20T12:04:44.485Z,0.77
2022-11-20T12:07:58.881Z,1.35
2022-11-20T12:11:01.281Z,0.55
2022-11-20T12:14:02.771Z,2.80
2022-11-20T12:16:42.818Z,1.42
2022-11-20T12:19:17.053Z,1.48
2022-11-20T12:22:23.394Z,2.47
2022-11-20T12:25:04.456Z,2.33
2022-11-20T12:28:02.731Z,0.80
2022-11-20T12:30:34.765Z,4.72
2022-11-20T12:33:59.870Z,1.30
2022-11-20T12:36:41.206Z,0.98
2022-11-20T12:39:41.944Z,2.90
2022-11-20T12:42:55.508Z,0.98
2022-11-20T12:45:37.604Z,2.53
2022-11-20T12:48:46.022Z,5.60
2022-11-20T12:51:51.505Z,3.55
2022-11-20T12:55:35.574Z,1.25
2022-11-20T12:58:28.973Z,3.20
2022-11-20T13:01:42.019Z,0.57
2022-11-20T13:05:03.760Z,0.50
2022-11-20T13:07:37.677Z,1.48
2022-11-20T13:11:15.003Z,1.45
2022-11-20T13:14:11.507Z,1.17
2022-11-20T13:17:33.608Z,1.00
2022-11-20T13:20:10.012Z,0.80
2022-11-20T13:23:04.793Z,1.17
2022-11-20T13:25:45.980Z,1.00
2022-11-20T13:28:19.529Z,0.88
2022-11-20T13:30:58.191Z,0.50
2022-11-20T13:33:42.424Z,0.85
2022-11-20T13:36:36.532Z,0.50
2022-11-20T13:39:25.481Z,0.70
2022-11-20T13:42:12.954Z,0.80
2022-11-20T13:44:56.142Z,0.50
2022-11-20T13:47:30.564Z,0.70
2022-11-20T13:50:13.350Z,0.50
2022-11-20T13:53:06.780Z,0.60
2022-11-20T13:56:19.845Z,0.98
2022-11-20T13:59:31.567Z,0.75
2022-11-20T14:02:06.929Z,0.70
2022-11-20T14:04:57.158Z,1.10
2022-11-20T14:07:45.797Z,1.10
2022-11-20T14:10:33.403Z,0.73
2022-11-20T14:13:32.903Z,0.82
2022-11-20T14:16:20.967Z,0.80
2022-11-20T14:19:00.222Z,1.20
2022-11-20T14:21:38.443Z,1.15
2022-11-20T14:24:13.044Z,1.05
2022-11-20T14:26:49.579Z,0.80
2022-11-20T14:29:42.947Z,1.40
2022-11-20T14:32:20.238Z,1.50
2022-11-20T14:34:51.534Z,0.80
2022-11-20T14:37:42.461Z,0.95
2022-11-20T14:40:43.016Z,0.70
2022-11-20T14:43:28.912Z,1.10
2022-11-20T14:46:22.910Z,1.23
2022-11-20T14:49:06.127Z,0.93
2022-11-20T14:51:46.979Z,0.60
2022-11-20T14:57:00.182Z,0.85
2022-11-20T14:59:32.726Z,0.80
2022-11-20T15:02:14.364Z,0.80
2022-11-20T15:05:02.674Z,0.52
2022-11-20T15:07:45.082Z,0.68
2022-11-20T15:10:33.240Z,1.23
2022-11-20T15:13:27.797Z,1.33
2022-11-20T15:16:23.409Z,1.10
2022-11-20T15:19:01.134Z,1.15
2022-11-20T15:21:29.099Z,1.05
2022-11-20T15:24:00.422Z,1.30
2022-11-20T15:26:36.387Z,1.83
2022-11-20T15:29:24.599Z,1.00
2022-11-20T15:32:09.178Z,2.13
2022-11-20T15:34:43.763Z,1.90
2022-11-20T15:37:15.395Z,1.65
2022-11-20T15:39:47.516Z,1.75
2022-11-20T15:42:20.159Z,1.60
2022-11-20T15:44:52.518Z,1.23
2022-11-20T15:47:32.215Z,1.10
2022-11-20T15:50:04.273Z,0.80
2022-11-20T15:52:41.906Z,0.75
2022-11-20T15:55:26.181Z,0.77
2022-11-20T15:57:58.581Z,0.50
2022-11-20T16:00:29.500Z,0.80
2022-11-20T16:03:05.213Z,0.55
2022-11-20T16:05:35.652Z,0.52
2022-11-20T16:08:07.185Z,0.80
2022-11-20T16:10:44.886Z,0.50
2022-11-20T16:13:38.552Z,1.38
2022-11-20T16:16:17.227Z,2.42
2022-11-20T16:18:46.562Z,3.28
2022-11-20T16:21:18.041Z,1.08
2022-11-20T16:23:50.015Z,0.70
2022-11-20T16:26:20.046Z,0.60
2022-11-20T16:28:55.866Z,0.75
2022-11-20T16:31:25.659Z,0.45
2022-11-20T16:34:11.540Z,1.38
2022-11-20T16:36:49.019Z,0.63
2022-11-20T16:39:24.606Z,1.10
2022-11-20T16:41:54.391Z,0.43
2022-11-20T16:44:23.385Z,0.88
2022-11-20T16:46:55.073Z,0.77
2022-11-20T16:49:24.237Z,1.33
2022-11-20T16:51:57.004Z,0.43
2022-11-20T16:54:31.039Z,0.90
2022-11-20T16:57:02.144Z,0.47
2022-11-20T16:59:35.115Z,0.60
2022-11-20T17:02:06.413Z,0.95
2022-11-20T17:04:44.300Z,0.52
2022-11-20T17:07:20.400Z,0.73
2022-11-20T17:09:51.948Z,0.90
2022-11-20T17:12:26.284Z,0.57
2022-11-20T17:14:56.780Z,0.45
2022-11-20T17:17:25.054Z,1.00
2022-11-20T17:19:56.475Z,0.45
2022-11-20T17:22:28.094Z,0.70
2022-11-20T17:25:02.145Z,0.65
2022-11-20T17:27:31.510Z,0.63
2022-11-20T17:30:01.020Z,0.40
2022-11-20T17:32:31.750Z,0.45
2022-11-20T17:35:06.524Z,0.80
2022-11-20T17:37:41.536Z,0.50
2022-11-20T17:40:12.866Z,0.35
2022-11-20T17:42:46.365Z,0.40
2022-11-20T17:45:24.801Z,0.52
2022-11-20T17:47:57.656Z,0.70
2022-11-20T17:50:40.433Z,0.70
2022-11-20T17:53:07.957Z,0.88
2022-11-20T17:55:56.074Z,0.57
2022-11-20T17:58:31.070Z,1.13
2022-11-20T18:01:09.527Z,0.95
2022-11-20T18:03:37.287Z,2.90
2022-11-20T18:06:17.919Z,1.60
2022-11-20T18:08:51.268Z,0.63
2022-11-20T18:11:35.295Z,0.65
2022-11-20T18:14:35.268Z,0.70
2022-11-20T18:17:19.411Z,0.80
2022-11-20T18:20:21.637Z,0.70
2022-11-20T18:22:45.968Z,0.50
2022-11-20T18:25:14.329Z,0.70
2022-11-20T18:27:48.206Z,1.00
2022-11-20T18:32:55.884Z,0.90
2022-11-20T18:35:28.130Z,0.90
2022-11-20T18:38:00.309Z,1.00
2022-11-20T18:40:38.487Z,0.95
2022-11-20T18:43:30.767Z,0.75
2022-11-20T18:46:09.119Z,1.10
2022-11-20T18:48:36.680Z,2.92
2022-11-20T18:51:12.575Z,1.80
2022-11-20T18:53:47.365Z,1.23
2022-11-20T18:56:19.725Z,0.70
2022-11-20T18:58:47.585Z,0.70
2022-11-20T19:01:14.918Z,0.88
2022-11-20T19:03:47.543Z,0.80
2022-11-20T19:06:18.394Z,0.52
2022-11-20T19:08:46.267Z,0.85
2022-11-20T19:11:14.105Z,0.90
2022-11-20T19:13:47.366Z,0.40
2022-11-20T19:16:28.413Z,0.40
2022-11-20T19:19:03.239Z,0.60
2022-11-20T19:21:41.911Z,0.55
2022-11-20T19:24:15.958Z,0.63
2022-11-20T19:26:53.050Z,0.90
2022-11-20T19:29:23.642Z,0.80
2022-11-20T19:31:53.487Z,0.80
2022-11-20T19:34:26.202Z,0.90
2022-11-20T19:37:01.205Z,1.00
2022-11-20T19:39:34.636Z,1.70
2022-11-20T19:42:03.302Z,1.23
2022-11-20T19:44:34.572Z,1.20
2022-11-20T19:47:09.070Z,1.17
2022-11-20T19:49:41.810Z,0.85
2022-11-20T19:52:19.994Z,1.60
2022-11-20T19:54:56.926Z,1.42
2022-11-20T19:57:39.205Z,1.38
2022-11-20T20:00:27.967Z,1.20
2022-11-20T20:03:04.226Z,1.30
2022-11-20T20:05:31.624Z,1.30
2022-11-20T20:08:01.858Z,0.95
2022-11-20T20:10:29.325Z,1.15
2022-11-20T20:13:01.758Z,1.92
2022-11-20T20:15:32.336Z,1.38
2022-11-20T20:18:09.016Z,1.08
2022-11-20T20:20:47.981Z,1.20
2022-11-20T20:23:15.616Z,1.33
2022-11-20T20:25:53.954Z,0.68
2022-11-20T20:28:24.846Z,0.60
2022-11-20T20:30:56.563Z,0.52
2022-11-20T20:33:35.967Z,0.32
2022-11-20T20:36:05.204Z,0.40
2022-11-20T20:38:35.934Z,0.40
2022-11-20T20:41:07.912Z,0.70
2022-11-20T20:44:07.181Z,0.30
2022-11-20T20:46:38.266Z,0.50
2022-11-20T20:49:07.854Z,0.40
2022-11-20T20:51:41.211Z,0.30
2022-11-20T20:54:13.907Z,0.45
2022-11-20T20:56:42.214Z,0.35
2022-11-20T20:59:09.873Z,0.40
2022-11-20T21:01:41.430Z,0.32
2022-11-20T21:04:17.329Z,0.15
2022-11-20T21:06:49.252Z,0.20
2022-11-20T21:09:21.586Z,0.43
2022-11-20T21:11:57.401Z,0.40
2022-11-20T21:14:29.121Z,0.50
2022-11-20T21:17:00.853Z,0.47
2022-11-20T21:19:28.698Z,0.40
2022-11-20T21:22:08.083Z,0.50
2022-11-20T21:24:37.847Z,0.25
2022-11-20T21:27:14.901Z,0.28
2022-11-20T21:29:44.239Z,1.10
2022-11-20T21:32:11.447Z,0.30
2022-11-20T21:34:43.121Z,0.32
2022-11-20T21:37:13.972Z,0.38
2022-11-20T21:39:53.829Z,0.30
2022-11-20T21:42:22.027Z,0.32
2022-11-20T21:44:49.363Z,0.22
2022-11-20T21:47:28.442Z,0.30
2022-11-20T21:49:57.541Z,0.30
2022-11-20T21:52:25.471Z,0.20
2022-11-20T21:55:01.881Z,0.20
2022-11-20T21:57:29.043Z,0.30
2022-11-20T22:00:03.961Z,0.22
2022-11-20T22:02:34.341Z,0.20
2022-11-20T22:05:06.827Z,0.38
2022-11-20T22:07:37.444Z,0.20
2022-11-20T22:10:18.818Z,0.40
2022-11-20T22:12:48.380Z,0.47
2022-11-20T22:15:33.292Z,0.40
2022-11-20T22:18:14.561Z,0.60
2022-11-20T22:20:43.195Z,0.30
2022-11-20T22:23:13.523Z,0.30
2022-11-20T22:25:46.738Z,0.10
2022-11-20T22:28:20.750Z,0.30
2022-11-20T22:33:30.920Z,0.20
2022-11-20T22:36:14.719Z,0.20
2022-11-20T22:38:45.275Z,0.50
2022-11-20T22:41:20.184Z,0.20
2022-11-20T22:43:55.561Z,0.40
2022-11-20T22:46:31.672Z,0.20
2022-11-20T22:49:02.921Z,0.30
2022-11-20T22:51:38.400Z,0.28
2022-11-20T22:54:12.383Z,0.13
2022-11-20T22:56:42.949Z,0.75
2022-11-20T22:59:14.632Z,0.70
2022-11-20T23:01:49.439Z,0.95
2022-11-20T23:04:18.575Z,0.30
2022-11-20T23:06:53.164Z,0.20
2022-11-20T23:09:20.571Z,0.10
2022-11-20T23:11:47.696Z,0.30
2022-11-20T23:14:27.425Z,0.22
2022-11-20T23:17:03.838Z,0.52
2022-11-20T23:19:34.476Z,0.20
2022-11-20T23:22:04.214Z,0.17
2022-11-20T23:24:34.731Z,0.15
2022-11-20T23:27:13.487Z,0.65
2022-11-20T23:29:44.283Z,0.21
2022-11-20T23:32:19.157Z,0.30
2022-11-20T23:34:50.859Z,0.47
2022-11-20T23:37:22.131Z,0.40
2022-11-20T23:39:52.441Z,0.20
2022-11-20T23:42:21.973Z,0.50
2022-11-20T23:44:52.764Z,0.30
2022-11-20T23:47:22.208Z,0.70
2022-11-20T23:49:53.865Z,0.30
2022-11-20T23:52:26.727Z,0.50
2022-11-20T23:55:00.429Z,0.30
2022-11-20T23:57:30.845Z,0.70
